createdAt,value
2023-04-17T00:01:24.762Z,5.96
2023-04-17T00:04:10.473Z,6.11
2023-04-17T00:06:56.447Z,6.17
2023-04-17T00:09:41.636Z,6.13
2023-04-17T00:12:26.855Z,5.97
2023-04-17T00:15:12.556Z,5.99
2023-04-17T00:17:58.056Z,5.63
2023-04-17T00:20:43.330Z,5.98
2023-04-17T00:23:28.495Z,6.10
2023-04-17T00:26:13.898Z,6.31
2023-04-17T00:29:01.777Z,6.08
2023-04-17T00:31:49.150Z,6.42
2023-04-17T00:34:34.569Z,6.15
2023-04-17T00:37:20.039Z,6.30
2023-04-17T00:40:05.756Z,6.41
2023-04-17T00:42:51.071Z,6.35
2023-04-17T00:45:36.428Z,6.37
2023-04-17T00:48:22.069Z,6.43
2023-04-17T00:51:08.042Z,6.38
2023-04-17T00:53:54.464Z,6.33
2023-04-17T00:56:41.146Z,6.23
2023-04-17T00:59:28.288Z,5.74
2023-04-17T01:02:13.602Z,6.20
2023-04-17T01:04:58.813Z,6.20
2023-04-17T01:07:45.389Z,5.75
2023-04-17T01:10:30.725Z,5.76
2023-04-17T01:13:15.897Z,5.66
2023-04-17T01:16:01.745Z,5.84
2023-04-17T01:18:47.855Z,5.17
2023-04-17T01:21:33.398Z,5.56
2023-04-17T01:24:19.441Z,5.61
2023-04-17T01:27:05.060Z,5.36
2023-04-17T01:29:50.950Z,5.01
2023-04-17T01:32:37.814Z,5.39
2023-04-17T01:35:23.236Z,5.36
2023-04-17T01:38:08.458Z,5.24
2023-04-17T01:40:53.544Z,5.12
2023-04-17T01:43:43.738Z,4.92
2023-04-17T01:46:29.746Z,5.44
2023-04-17T01:49:15.060Z,5.24
2023-04-17T01:52:00.467Z,5.15
2023-04-17T01:54:45.789Z,5.42
2023-04-17T01:57:32.792Z,5.22
2023-04-17T02:00:18.183Z,5.42
2023-04-17T02:03:03.962Z,5.24
2023-04-17T02:05:50.470Z,4.81
2023-04-17T02:08:35.698Z,5.23
2023-04-17T02:11:22.242Z,5.28
2023-04-17T02:14:09.755Z,4.90
2023-04-17T02:16:55.145Z,4.73
2023-04-17T02:19:40.314Z,4.83
2023-04-17T02:25:35.731Z,5.15
2023-04-17T02:28:22.100Z,5.30
2023-04-17T02:31:08.636Z,4.78
2023-04-17T02:33:54.066Z,5.30
2023-04-17T02:36:39.297Z,5.49
2023-04-17T02:39:25.704Z,5.27
2023-04-17T02:42:11.156Z,5.22
2023-04-17T02:44:56.478Z,5.45
2023-04-17T02:47:42.097Z,5.63
2023-04-17T02:50:28.565Z,5.79
2023-04-17T02:53:24.967Z,5.61
2023-04-17T02:56:10.387Z,4.81
2023-04-17T02:58:55.633Z,5.00
2023-04-17T03:01:41.090Z,5.14
2023-04-17T03:04:26.806Z,5.25
2023-04-17T03:07:12.261Z,5.42
2023-04-17T03:09:57.691Z,5.50
2023-04-17T03:12:42.738Z,5.49
2023-04-17T03:15:28.265Z,5.49
2023-04-17T03:18:13.320Z,5.59
2023-04-17T03:20:58.504Z,5.64
2023-04-17T03:23:43.603Z,5.61
2023-04-17T03:26:29.081Z,5.60
2023-04-17T03:29:15.828Z,5.59
2023-04-17T03:32:01.019Z,5.46
2023-04-17T03:34:46.901Z,5.52
2023-04-17T03:37:32.450Z,5.53
2023-04-17T03:40:18.006Z,5.49
2023-04-17T03:43:05.115Z,5.42
2023-04-17T03:45:50.883Z,5.45
2023-04-17T03:48:36.741Z,4.91
2023-04-17T03:51:22.104Z,5.39
2023-04-17T03:54:07.264Z,5.55
2023-04-17T03:56:52.367Z,4.02
2023-04-17T03:59:38.027Z,5.61
2023-04-17T04:02:24.431Z,5.60
2023-04-17T04:05:11.845Z,5.62
2023-04-17T04:07:56.996Z,5.50
2023-04-17T04:10:52.777Z,5.56
2023-04-17T04:13:44.174Z,5.55
2023-04-17T04:16:30.242Z,5.47
2023-04-17T04:19:24.003Z,5.06
2023-04-17T04:22:09.884Z,4.37
2023-04-17T04:25:02.543Z,4.06
2023-04-17T04:28:02.648Z,4.12
2023-04-17T04:30:51.060Z,4.28
2023-04-17T04:33:38.962Z,4.36
2023-04-17T04:36:26.183Z,4.08
2023-04-17T04:39:22.771Z,4.21
2023-04-17T04:42:08.304Z,4.15
2023-04-17T04:45:06.061Z,3.98
2023-04-17T04:47:52.532Z,3.77
2023-04-17T04:50:38.275Z,3.62
2023-04-17T04:53:25.095Z,3.06
2023-04-17T04:56:13.906Z,3.55
2023-04-17T04:58:59.053Z,3.64
2023-04-17T05:01:45.016Z,3.78
2023-04-17T05:04:31.735Z,3.73
2023-04-17T05:07:19.100Z,3.83
2023-04-17T05:10:06.127Z,3.80
2023-04-17T05:12:54.734Z,3.61
2023-04-17T05:15:40.050Z,3.21
2023-04-17T05:18:26.567Z,3.68
2023-04-17T05:21:13.387Z,3.77
2023-04-17T05:23:58.842Z,3.57
2023-04-17T05:26:45.589Z,4.16
2023-04-17T05:29:31.690Z,4.22
2023-04-17T05:32:17.262Z,4.38
2023-04-17T05:35:15.295Z,4.23
2023-04-17T05:38:01.596Z,4.72
2023-04-17T05:40:46.997Z,4.83
2023-04-17T05:43:32.140Z,4.65
2023-04-17T05:46:17.633Z,4.73
2023-04-17T05:49:02.713Z,4.84
2023-04-17T05:51:48.392Z,4.00
2023-04-17T05:54:33.928Z,4.28
2023-04-17T05:57:19.343Z,4.36
2023-04-17T06:00:07.643Z,4.49
2023-04-17T06:02:59.772Z,4.51
2023-04-17T06:05:51.760Z,4.33
2023-04-17T06:08:37.832Z,4.19
2023-04-17T06:11:23.553Z,4.05
2023-04-17T06:14:08.837Z,3.79
2023-04-17T06:16:57.366Z,3.92
2023-04-17T06:19:43.121Z,3.93
2023-04-17T06:22:28.402Z,4.16
2023-04-17T06:25:13.791Z,4.45
2023-04-17T06:27:59.299Z,4.09
2023-04-17T06:30:44.715Z,4.26
2023-04-17T06:33:29.907Z,4.30
2023-04-17T06:36:15.884Z,4.10
2023-04-17T06:39:05.841Z,4.02
2023-04-17T06:41:51.345Z,3.64
2023-04-17T06:44:44.567Z,4.15
2023-04-17T06:47:32.142Z,4.14
2023-04-17T06:50:17.591Z,4.47
2023-04-17T06:53:02.926Z,4.37
2023-04-17T06:55:48.099Z,4.55
2023-04-17T06:58:33.564Z,4.73
2023-04-17T07:01:18.942Z,4.68
2023-04-17T07:04:04.535Z,4.73
2023-04-17T07:06:50.374Z,4.49
2023-04-17T07:09:35.955Z,4.66
2023-04-17T07:12:21.159Z,4.26
2023-04-17T07:15:06.739Z,4.61
2023-04-17T07:17:52.224Z,4.63
2023-04-17T07:20:37.729Z,4.56
2023-04-17T07:23:23.252Z,4.60
2023-04-17T07:26:08.806Z,4.05
2023-04-17T07:28:54.335Z,4.81
2023-04-17T07:31:39.756Z,4.85
2023-04-17T07:34:24.977Z,4.90
2023-04-17T07:37:10.195Z,4.72
2023-04-17T07:39:55.404Z,4.38
2023-04-17T07:42:40.725Z,4.65
2023-04-17T07:45:28.380Z,4.68
2023-04-17T07:48:13.569Z,4.65
2023-04-17T07:51:00.179Z,4.53
2023-04-17T07:53:45.587Z,4.64
2023-04-17T07:56:31.181Z,4.55
2023-04-17T07:59:16.807Z,4.67
2023-04-17T08:02:02.113Z,4.68
2023-04-17T08:04:47.772Z,4.55
2023-04-17T08:07:33.402Z,4.74
2023-04-17T08:10:18.628Z,4.83
2023-04-17T08:13:03.819Z,5.04
2023-04-17T08:15:49.014Z,5.08
2023-04-17T08:18:34.348Z,5.04
2023-04-17T08:21:19.793Z,5.12
2023-04-17T08:24:05.354Z,5.22
2023-04-17T08:26:50.920Z,5.36
2023-04-17T08:29:36.379Z,5.33
2023-04-17T08:32:22.109Z,5.89
2023-04-17T08:35:08.330Z,5.76
2023-04-17T08:37:53.752Z,5.83
2023-04-17T08:40:38.861Z,6.00
2023-04-17T08:43:28.524Z,5.92
2023-04-17T08:46:15.001Z,6.08
2023-04-17T08:49:03.031Z,5.93
2023-04-17T08:51:48.475Z,5.31
2023-04-17T08:54:33.828Z,6.07
2023-04-17T08:57:19.032Z,6.20
2023-04-17T09:00:05.312Z,6.18
2023-04-17T09:02:55.488Z,6.24
2023-04-17T09:05:42.338Z,6.03
2023-04-17T09:08:27.836Z,5.78
2023-04-17T09:11:18.947Z,6.12
2023-04-17T09:14:04.217Z,6.22
2023-04-17T09:16:55.411Z,6.09
2023-04-17T09:20:06.352Z,6.14
2023-04-17T09:23:03.388Z,6.09
2023-04-17T09:26:05.819Z,5.71
2023-04-17T09:29:08.772Z,6.24
2023-04-17T09:31:53.940Z,6.34
2023-04-17T09:34:42.586Z,6.27
2023-04-17T09:37:54.385Z,6.64
2023-04-17T09:40:41.574Z,6.78
2023-04-17T09:43:41.029Z,6.62
2023-04-17T09:46:43.174Z,6.71
2023-04-17T09:49:38.987Z,6.68
2023-04-17T09:52:24.635Z,6.72
2023-04-17T09:55:11.716Z,6.80
2023-04-17T09:57:59.299Z,6.78
2023-04-17T10:00:45.077Z,6.82
2023-04-17T10:03:30.919Z,6.61
2023-04-17T10:06:16.904Z,6.99
2023-04-17T10:09:02.682Z,6.70
2023-04-17T10:11:48.096Z,6.95
2023-04-17T10:14:36.449Z,6.79
2023-04-17T10:17:23.532Z,6.60
2023-04-17T10:20:17.799Z,6.53
2023-04-17T10:23:33.379Z,6.30
2023-04-17T10:26:24.431Z,6.80
2023-04-17T10:29:09.869Z,6.87
2023-04-17T10:32:14.641Z,6.92
2023-04-17T10:35:01.897Z,6.90
2023-04-17T10:37:47.258Z,6.96
2023-04-17T10:40:37.173Z,6.94
2023-04-17T10:43:22.923Z,7.20
2023-04-17T10:46:13.173Z,7.23
2023-04-17T10:48:58.711Z,6.02
2023-04-17T10:51:43.796Z,7.27
2023-04-17T10:54:32.846Z,7.21
2023-04-17T10:57:50.116Z,7.50
2023-04-17T11:00:37.299Z,7.56
2023-04-17T11:03:23.544Z,7.86
2023-04-17T11:06:09.913Z,7.84
2023-04-17T11:08:57.381Z,8.14
2023-04-17T11:11:45.064Z,7.98
2023-04-17T11:14:30.669Z,8.30
2023-04-17T11:17:16.168Z,8.43
2023-04-17T11:20:01.469Z,8.33
2023-04-17T11:22:47.826Z,8.48
2023-04-17T11:25:34.565Z,8.31
2023-04-17T11:28:20.769Z,7.92
2023-04-17T11:31:06.109Z,7.84
2023-04-17T11:33:51.574Z,7.74
2023-04-17T11:36:37.107Z,7.89
2023-04-17T11:39:28.092Z,8.05
2023-04-17T11:42:13.574Z,8.19
2023-04-17T11:45:07.372Z,8.05
2023-04-17T11:47:52.722Z,7.95
2023-04-17T11:50:38.682Z,8.29
2023-04-17T11:53:24.779Z,8.42
2023-04-17T11:56:15.672Z,8.83
2023-04-17T11:59:00.750Z,8.68
2023-04-17T12:01:52.208Z,8.59
2023-04-17T12:04:38.466Z,8.45
2023-04-17T12:07:24.056Z,8.40
2023-04-17T12:10:09.744Z,8.31
2023-04-17T12:12:55.155Z,8.18
2023-04-17T12:15:40.308Z,8.76
2023-04-17T12:18:25.764Z,8.79
2023-04-17T12:21:10.897Z,8.56
2023-04-17T12:23:56.470Z,8.38
2023-04-17T12:26:49.272Z,8.35
2023-04-17T12:29:44.080Z,7.87
2023-04-17T12:32:30.410Z,8.09
2023-04-17T12:35:16.156Z,8.24
2023-04-17T12:38:01.230Z,8.34
2023-04-17T12:40:46.876Z,8.48
2023-04-17T12:43:32.833Z,8.48
2023-04-17T12:46:18.420Z,8.41
2023-04-17T12:49:03.848Z,8.15
2023-04-17T12:51:49.595Z,8.91
2023-04-17T12:54:34.811Z,8.58
2023-04-17T12:57:20.911Z,8.73
2023-04-17T13:00:06.763Z,8.75
2023-04-17T13:02:52.202Z,8.84
2023-04-17T13:05:37.623Z,8.53
2023-04-17T13:08:22.916Z,8.46
2023-04-17T13:11:08.514Z,8.62
2023-04-17T13:13:53.950Z,9.03
2023-04-17T13:16:39.277Z,8.94
2023-04-17T13:19:24.766Z,8.74
2023-04-17T13:22:10.290Z,9.04
2023-04-17T13:24:55.677Z,9.03
2023-04-17T13:27:41.029Z,9.12
2023-04-17T13:30:26.288Z,8.84
2023-04-17T13:33:11.319Z,8.71
2023-04-17T13:35:56.939Z,8.69
2023-04-17T13:38:42.397Z,8.95
2023-04-17T13:41:28.442Z,8.64
2023-04-17T13:44:13.836Z,8.65
2023-04-17T13:46:59.769Z,8.46
2023-04-17T13:49:44.947Z,8.57
2023-04-17T13:52:30.386Z,8.67
2023-04-17T13:55:15.810Z,8.46
2023-04-17T13:58:01.208Z,8.28
2023-04-17T14:00:46.676Z,8.45
2023-04-17T14:03:32.702Z,8.53
2023-04-17T14:06:18.088Z,8.61
2023-04-17T14:09:03.452Z,8.61
2023-04-17T14:11:48.637Z,8.62
2023-04-17T14:14:34.265Z,8.60
2023-04-17T14:17:19.599Z,8.57
2023-04-17T14:20:06.019Z,8.67
2023-04-17T14:22:51.320Z,8.58
2023-04-17T14:25:37.866Z,8.51
2023-04-17T14:28:23.604Z,8.50
2023-04-17T14:31:08.978Z,8.49
2023-04-17T14:33:54.258Z,8.55
2023-04-17T14:36:39.652Z,8.48
2023-04-17T14:39:24.847Z,8.34
2023-04-17T14:42:10.180Z,8.38
2023-04-17T14:44:56.436Z,8.13
2023-04-17T14:47:41.814Z,8.24
2023-04-17T14:50:26.910Z,8.17
2023-04-17T14:53:12.271Z,8.10
2023-04-17T14:55:57.801Z,7.87
2023-04-17T14:58:43.604Z,8.20
2023-04-17T15:01:29.633Z,8.01
2023-04-17T15:04:15.762Z,8.24
2023-04-17T15:07:02.639Z,7.94
2023-04-17T15:09:48.179Z,6.84
2023-04-17T15:12:33.627Z,8.59
2023-04-17T15:15:19.279Z,8.78
2023-04-17T15:18:04.972Z,8.70
2023-04-17T15:20:50.348Z,8.76
2023-04-17T15:23:35.767Z,8.89
2023-04-17T15:26:22.355Z,9.04
2023-04-17T15:29:07.648Z,8.87
2023-04-17T15:31:53.433Z,8.56
2023-04-17T15:34:39.588Z,8.54
2023-04-17T15:37:25.013Z,8.39
2023-04-17T15:40:10.720Z,8.28
2023-04-17T15:42:56.063Z,8.47
2023-04-17T15:45:41.453Z,8.11
2023-04-17T15:48:27.920Z,8.32
2023-04-17T15:51:13.267Z,8.42
2023-04-17T15:53:58.614Z,8.58
2023-04-17T15:56:43.829Z,8.68
2023-04-17T15:59:29.382Z,8.66
2023-04-17T16:02:14.934Z,8.54
2023-04-17T16:05:00.801Z,8.27
2023-04-17T16:07:46.088Z,8.09
2023-04-17T16:10:31.251Z,7.88
2023-04-17T16:13:16.617Z,7.78
2023-04-17T16:16:01.724Z,7.86
2023-04-17T16:18:46.991Z,7.68
2023-04-17T16:21:32.220Z,7.92
2023-04-17T16:24:17.649Z,7.69
2023-04-17T16:27:03.013Z,7.57
2023-04-17T16:29:48.106Z,7.52
2023-04-17T16:32:33.948Z,7.39
2023-04-17T16:35:19.006Z,7.47
2023-04-17T16:38:04.570Z,7.39
2023-04-17T16:40:50.164Z,7.42
2023-04-17T16:43:35.529Z,7.43
2023-04-17T16:46:26.069Z,7.63
2023-04-17T16:49:17.207Z,7.81
2023-04-17T16:52:02.955Z,7.93
2023-04-17T16:54:48.469Z,7.78
2023-04-17T16:57:34.431Z,7.70
2023-04-17T17:00:20.500Z,7.80
2023-04-17T17:03:06.223Z,7.54
2023-04-17T17:05:51.622Z,7.07
2023-04-17T17:08:37.074Z,7.40
2023-04-17T17:11:23.249Z,7.00
2023-04-17T17:14:08.977Z,7.18
2023-04-17T17:16:54.705Z,7.31
2023-04-17T17:19:40.239Z,7.25
2023-04-17T17:22:25.354Z,7.53
2023-04-17T17:25:11.004Z,7.84
2023-04-17T17:27:56.426Z,7.67
2023-04-17T17:30:42.337Z,7.57
2023-04-17T17:33:29.377Z,7.59
2023-04-17T17:36:14.778Z,7.51
2023-04-17T17:39:00.437Z,7.42
2023-04-17T17:41:47.351Z,7.39
2023-04-17T17:44:33.026Z,7.35
2023-04-17T17:47:18.555Z,7.37
2023-04-17T17:50:04.045Z,7.26
2023-04-17T17:52:49.518Z,7.22
2023-04-17T17:55:34.882Z,7.31
2023-04-17T17:58:20.426Z,7.08
2023-04-17T18:01:06.168Z,6.91
2023-04-17T18:03:51.540Z,6.85
2023-04-17T18:06:37.335Z,6.78
2023-04-17T18:09:22.871Z,6.19
2023-04-17T18:12:08.109Z,6.71
2023-04-17T18:14:53.557Z,6.57
2023-04-17T18:17:39.055Z,6.15
2023-04-17T18:20:24.507Z,6.67
2023-04-17T18:23:09.884Z,6.59
2023-04-17T18:26:02.435Z,6.52
2023-04-17T18:28:48.040Z,6.50
2023-04-17T18:31:33.729Z,6.45
2023-04-17T18:34:19.417Z,6.46
2023-04-17T18:37:05.186Z,6.32
2023-04-17T18:39:54.856Z,6.49
2023-04-17T18:42:39.987Z,6.49
2023-04-17T18:45:25.968Z,6.49
2023-04-17T18:48:11.221Z,6.39
2023-04-17T18:50:56.651Z,6.39
2023-04-17T18:53:42.699Z,6.27
2023-04-17T18:56:28.217Z,6.00
2023-04-17T18:59:13.921Z,5.84
2023-04-17T19:01:59.260Z,5.48
2023-04-17T19:04:44.219Z,5.32
2023-04-17T19:07:30.067Z,5.10
2023-04-17T19:10:15.179Z,5.18
2023-04-17T19:13:00.518Z,5.14
2023-04-17T19:15:45.569Z,5.01
2023-04-17T19:18:31.113Z,5.13
2023-04-17T19:21:16.501Z,5.04
2023-04-17T19:24:01.810Z,4.99
2023-04-17T19:26:47.346Z,5.08
2023-04-17T19:29:32.682Z,4.96
2023-04-17T19:32:17.946Z,4.90
2023-04-17T19:35:03.847Z,4.82
2023-04-17T19:37:49.234Z,4.96
2023-04-17T19:40:35.287Z,4.97
2023-04-17T19:43:20.717Z,5.02
2023-04-17T19:46:06.166Z,4.98
2023-04-17T19:48:51.290Z,4.88
2023-04-17T19:51:37.811Z,4.58
2023-04-17T19:54:22.916Z,4.74
2023-04-17T19:57:08.128Z,4.82
2023-04-17T19:59:53.355Z,4.80
2023-04-17T20:02:38.870Z,4.86
2023-04-17T20:05:24.620Z,4.82
2023-04-17T20:08:10.047Z,4.73
2023-04-17T20:10:55.206Z,4.58
2023-04-17T20:13:41.591Z,4.69
2023-04-17T20:16:27.263Z,4.79
2023-04-17T20:19:13.402Z,4.29
2023-04-17T20:21:59.020Z,4.70
2023-04-17T20:24:44.118Z,4.76
2023-04-17T20:27:29.460Z,4.81
2023-04-17T20:30:15.169Z,4.85
2023-04-17T20:33:00.392Z,4.78
2023-04-17T20:35:46.148Z,4.59
2023-04-17T20:38:31.378Z,4.47
2023-04-17T20:41:16.968Z,4.42
2023-04-17T20:44:02.787Z,4.51
2023-04-17T20:46:48.392Z,4.57
2023-04-17T20:49:34.114Z,4.56
2023-04-17T20:52:19.826Z,4.63
2023-04-17T20:55:06.314Z,4.54
2023-04-17T20:57:52.273Z,4.36
2023-04-17T21:00:42.102Z,4.44
2023-04-17T21:03:33.498Z,4.53
2023-04-17T21:06:18.677Z,4.63
2023-04-17T21:09:04.264Z,4.60
2023-04-17T21:11:49.688Z,4.58
2023-04-17T21:14:36.784Z,4.42
2023-04-17T21:17:22.802Z,4.37
2023-04-17T21:20:09.084Z,4.25
2023-04-17T21:22:54.664Z,4.11
2023-04-17T21:25:39.773Z,3.90
2023-04-17T21:28:25.376Z,4.10
2023-04-17T21:31:14.208Z,4.24
2023-04-17T21:33:59.963Z,4.12
2023-04-17T21:36:45.649Z,4.22
2023-04-17T21:39:32.903Z,4.12
2023-04-17T21:42:18.445Z,4.25
2023-04-17T21:45:03.731Z,4.42
2023-04-17T21:47:49.370Z,4.35
2023-04-17T21:50:34.654Z,4.28
2023-04-17T21:53:20.135Z,4.24
2023-04-17T21:56:06.963Z,4.23
2023-04-17T21:58:52.770Z,4.20
2023-04-17T22:01:38.330Z,4.01
2023-04-17T22:04:23.867Z,4.25
2023-04-17T22:07:09.132Z,4.20
2023-04-17T22:09:54.332Z,3.47
2023-04-17T22:12:39.509Z,4.13
2023-04-17T22:15:24.950Z,4.26
2023-04-17T22:18:10.480Z,4.27
2023-04-17T22:20:56.106Z,4.18
2023-04-17T22:23:41.549Z,4.13
2023-04-17T22:26:27.868Z,3.98
2023-04-17T22:29:13.446Z,3.95
2023-04-17T22:31:59.012Z,3.84
2023-04-17T22:34:49.001Z,3.79
2023-04-17T22:37:34.450Z,3.73
2023-04-17T22:40:20.070Z,3.47
2023-04-17T22:43:05.667Z,3.47
2023-04-17T22:45:51.122Z,3.46
2023-04-17T22:48:36.594Z,3.48
2023-04-17T22:51:22.027Z,3.30
2023-04-17T22:54:19.058Z,3.29
2023-04-17T22:57:10.299Z,3.55
2023-04-17T22:59:55.757Z,3.45
2023-04-17T23:02:41.075Z,3.68
2023-04-17T23:05:26.354Z,3.74
2023-04-17T23:08:11.776Z,3.65
2023-04-17T23:11:01.572Z,3.57
2023-04-17T23:13:47.052Z,3.48
2023-04-17T23:16:32.737Z,3.44
2023-04-17T23:19:18.210Z,3.50
2023-04-17T23:22:03.371Z,3.50
2023-04-17T23:24:48.744Z,3.49
2023-04-17T23:27:34.089Z,3.36
2023-04-17T23:30:19.712Z,3.36
2023-04-17T23:33:05.348Z,3.30
2023-04-17T23:35:50.593Z,3.13
2023-04-17T23:38:36.153Z,3.18
2023-04-17T23:41:21.478Z,3.11
2023-04-17T23:44:06.706Z,2.08
2023-04-17T23:46:52.403Z,3.08
2023-04-17T23:49:37.683Z,2.62
2023-04-17T23:52:23.049Z,3.06
2023-04-17T23:55:11.379Z,3.19
2023-04-17T23:57:57.289Z,2.62
